createdAt,value
2019-03-29T00:01:10.133Z,43.55
2019-03-29T00:03:39.896Z,45.05
2019-03-29T00:06:10.757Z,42.58
2019-03-29T00:08:40.499Z,49.50
2019-03-29T00:11:10.188Z,40.70
2019-03-29T00:13:39.780Z,56.02
2019-03-29T00:16:09.371Z,44.33
2019-03-29T00:18:38.976Z,50.35
2019-03-29T00:21:08.658Z,47.48
2019-03-29T00:23:38.254Z,45.48
2019-03-29T00:26:07.882Z,47.53
2019-03-29T00:28:37.511Z,55.00
2019-03-29T00:31:07.098Z,47.45
2019-03-29T00:33:36.696Z,49.03
2019-03-29T00:36:06.321Z,46.90
2019-03-29T00:38:35.902Z,45.28
2019-03-29T00:41:05.533Z,48.83
2019-03-29T00:43:35.177Z,51.35
2019-03-29T00:46:04.724Z,48.98
2019-03-29T00:48:36.134Z,51.00
2019-03-29T00:51:05.788Z,46.88
2019-03-29T00:53:35.936Z,48.68
2019-03-29T00:56:05.976Z,49.95
2019-03-29T00:58:35.651Z,42.13
2019-03-29T01:01:05.282Z,47.95
2019-03-29T01:03:34.913Z,56.20
2019-03-29T01:06:04.596Z,46.80
2019-03-29T01:08:34.221Z,48.20
2019-03-29T01:11:03.809Z,53.08
2019-03-29T01:13:33.412Z,51.48
2019-03-29T01:16:03.046Z,49.88
2019-03-29T01:18:32.640Z,46.80
2019-03-29T01:21:02.306Z,51.60
2019-03-29T01:23:31.914Z,48.55
2019-03-29T01:26:01.515Z,49.40
2019-03-29T01:28:31.124Z,50.73
2019-03-29T01:31:00.721Z,46.08
2019-03-29T01:33:30.354Z,150.20
2019-03-29T01:35:59.978Z,51.37
2019-03-29T01:38:29.588Z,52.55
2019-03-29T01:40:59.187Z,53.13
2019-03-29T01:43:28.792Z,52.75
2019-03-29T01:45:58.387Z,49.50
2019-03-29T01:48:28.001Z,48.90
2019-03-29T01:50:57.623Z,55.95
2019-03-29T01:53:27.268Z,54.53
2019-03-29T01:55:56.854Z,48.70
2019-03-29T01:58:26.474Z,51.02
2019-03-29T02:00:56.080Z,50.05
2019-03-29T02:03:25.687Z,52.43
2019-03-29T02:05:55.294Z,46.73
2019-03-29T02:08:35.152Z,42.27
2019-03-29T02:10:56.116Z,47.88
2019-03-29T02:13:26.084Z,44.53
2019-03-29T02:15:55.939Z,43.17
2019-03-29T02:18:25.527Z,51.88
2019-03-29T02:20:55.122Z,41.08
2019-03-29T02:23:24.742Z,44.70
2019-03-29T02:25:54.343Z,43.95
2019-03-29T02:28:23.930Z,44.50
2019-03-29T02:30:53.522Z,44.58
2019-03-29T02:33:23.157Z,44.15
2019-03-29T02:35:52.743Z,42.83
2019-03-29T02:38:23.545Z,43.08
2019-03-29T02:40:53.660Z,40.52
2019-03-29T02:43:23.275Z,45.78
2019-03-29T02:45:52.868Z,40.00
2019-03-29T02:48:22.474Z,43.85
2019-03-29T02:50:52.079Z,41.10
2019-03-29T02:53:21.689Z,37.78
2019-03-29T02:55:51.286Z,39.03
2019-03-29T02:58:20.895Z,38.50
2019-03-29T03:00:50.682Z,37.53
2019-03-29T03:03:20.280Z,36.80
2019-03-29T03:05:49.895Z,38.90
2019-03-29T03:08:19.497Z,32.42
2019-03-29T03:10:49.111Z,35.75
2019-03-29T03:13:18.701Z,38.33
2019-03-29T03:15:48.319Z,38.35
2019-03-29T03:18:17.993Z,35.43
2019-03-29T03:20:47.604Z,38.50
2019-03-29T03:23:17.201Z,35.25
2019-03-29T03:25:47.208Z,39.13
2019-03-29T03:28:16.800Z,37.40
2019-03-29T03:30:46.412Z,41.53
2019-03-29T03:33:16.032Z,44.73
2019-03-29T03:35:45.624Z,38.98
2019-03-29T03:38:15.220Z,38.05
2019-03-29T03:40:44.909Z,33.88
2019-03-29T03:43:14.510Z,38.05
2019-03-29T03:45:44.118Z,39.55
2019-03-29T03:48:13.744Z,39.50
2019-03-29T03:50:44.385Z,38.02
2019-03-29T03:53:14.198Z,35.73
2019-03-29T03:55:43.949Z,38.15
2019-03-29T03:58:13.772Z,44.93
2019-03-29T04:00:54.423Z,43.08
2019-03-29T04:03:24.788Z,37.53
2019-03-29T04:05:55.000Z,37.05
2019-03-29T04:08:24.614Z,45.10
2019-03-29T04:10:54.293Z,46.92
2019-03-29T04:13:23.969Z,44.50
2019-03-29T04:15:53.707Z,50.58
2019-03-29T04:18:23.299Z,43.42
2019-03-29T04:20:52.920Z,40.90
2019-03-29T04:23:22.623Z,39.80
2019-03-29T04:25:52.223Z,38.38
2019-03-29T04:28:21.818Z,32.05
2019-03-29T04:30:51.445Z,35.95
2019-03-29T04:33:21.036Z,38.20
2019-03-29T04:35:50.659Z,33.63
2019-03-29T04:38:20.261Z,41.48
2019-03-29T04:40:49.886Z,37.80
2019-03-29T04:43:19.499Z,38.42
2019-03-29T04:45:49.109Z,34.43
2019-03-29T04:48:18.727Z,38.67
2019-03-29T04:50:48.342Z,38.95
2019-03-29T04:53:18.033Z,38.48
2019-03-29T04:55:47.587Z,35.48
2019-03-29T04:58:17.193Z,38.98
2019-03-29T05:00:46.885Z,36.28
2019-03-29T05:03:16.514Z,42.03
2019-03-29T05:05:46.125Z,39.03
2019-03-29T05:08:15.702Z,35.98
2019-03-29T05:10:45.332Z,41.23
2019-03-29T05:13:14.926Z,38.53
2019-03-29T05:15:44.633Z,36.25
2019-03-29T05:18:14.179Z,40.67
2019-03-29T05:20:43.844Z,39.33
2019-03-29T05:23:13.461Z,40.48
2019-03-29T05:25:43.059Z,41.95
2019-03-29T05:28:14.316Z,37.93
2019-03-29T05:30:43.936Z,42.60
2019-03-29T05:33:13.549Z,45.78
2019-03-29T05:35:43.142Z,42.10
2019-03-29T05:38:12.818Z,42.90
2019-03-29T05:40:42.415Z,43.23
2019-03-29T05:43:12.017Z,44.08
2019-03-29T05:45:41.607Z,49.55
2019-03-29T05:48:11.219Z,53.55
2019-03-29T05:50:40.820Z,55.25
2019-03-29T05:53:10.443Z,57.05
2019-03-29T05:55:40.111Z,61.75
2019-03-29T05:58:09.726Z,59.50
2019-03-29T06:00:39.326Z,52.80
2019-03-29T06:03:10.206Z,58.58
2019-03-29T06:05:40.029Z,53.33
2019-03-29T06:08:09.677Z,59.53
2019-03-29T06:10:48.818Z,65.28
2019-03-29T06:13:10.605Z,65.20
2019-03-29T06:15:40.244Z,69.30
2019-03-29T06:18:09.936Z,67.65
2019-03-29T06:20:39.596Z,67.12
2019-03-29T06:23:09.231Z,69.05
2019-03-29T06:25:38.923Z,73.30
2019-03-29T06:28:08.618Z,73.90
2019-03-29T06:30:38.214Z,73.62
2019-03-29T06:33:07.905Z,72.40
2019-03-29T06:35:40.497Z,79.40
2019-03-29T06:38:11.212Z,80.95
2019-03-29T06:40:40.802Z,73.52
2019-03-29T06:43:10.432Z,84.17
2019-03-29T06:45:47.769Z,84.32
2019-03-29T06:48:11.430Z,79.95
2019-03-29T06:50:41.147Z,80.35
2019-03-29T06:53:12.316Z,76.05
2019-03-29T06:55:49.147Z,83.10
2019-03-29T06:58:18.858Z,80.20
2019-03-29T07:00:48.464Z,82.97
2019-03-29T07:03:18.135Z,80.30
2019-03-29T07:05:47.807Z,87.72
2019-03-29T07:08:17.593Z,83.55
2019-03-29T07:10:47.321Z,83.25
2019-03-29T07:13:17.053Z,96.28
2019-03-29T07:15:46.915Z,79.67
2019-03-29T07:18:17.254Z,88.75
2019-03-29T07:20:47.488Z,84.15
2019-03-29T07:23:17.614Z,81.02
2019-03-29T07:25:47.594Z,92.85
2019-03-29T07:28:17.305Z,89.28
2019-03-29T07:30:48.658Z,84.05
2019-03-29T07:33:21.491Z,84.87
2019-03-29T07:35:51.248Z,85.62
2019-03-29T07:38:21.000Z,90.45
2019-03-29T07:40:50.853Z,93.30
2019-03-29T07:43:23.830Z,92.22
2019-03-29T07:45:52.612Z,94.35
2019-03-29T07:48:22.297Z,90.40
2019-03-29T07:50:52.137Z,87.82
2019-03-29T07:53:24.946Z,91.47
2019-03-29T07:55:54.801Z,85.85
2019-03-29T07:58:27.804Z,88.78
2019-03-29T08:00:57.796Z,88.92
2019-03-29T08:03:27.717Z,86.55
2019-03-29T08:05:57.460Z,83.10
2019-03-29T08:08:32.369Z,86.82
2019-03-29T08:10:59.267Z,85.75
2019-03-29T08:13:29.269Z,89.15
2019-03-29T08:16:00.633Z,84.22
2019-03-29T08:18:30.329Z,81.05
2019-03-29T08:21:02.580Z,75.85
2019-03-29T08:23:32.416Z,74.10
2019-03-29T08:26:04.455Z,70.65
2019-03-29T08:28:34.142Z,70.67
2019-03-29T08:31:04.711Z,63.10
2019-03-29T08:33:34.437Z,73.02
2019-03-29T08:36:06.557Z,62.93
2019-03-29T08:38:36.457Z,59.20
2019-03-29T08:41:06.115Z,62.53
2019-03-29T08:43:35.811Z,61.20
2019-03-29T08:46:05.551Z,60.48
2019-03-29T08:48:35.497Z,57.48
2019-03-29T08:51:05.213Z,49.98
2019-03-29T08:53:34.936Z,51.85
2019-03-29T08:56:04.800Z,60.73
2019-03-29T08:58:34.404Z,57.50
2019-03-29T09:01:04.195Z,53.33
2019-03-29T09:03:34.010Z,51.45
2019-03-29T09:06:03.895Z,54.88
2019-03-29T09:08:33.565Z,54.50
2019-03-29T09:11:07.509Z,51.35
2019-03-29T09:13:35.902Z,52.73
2019-03-29T09:16:05.556Z,51.15
2019-03-29T09:18:35.340Z,56.50
2019-03-29T09:21:06.190Z,55.23
2019-03-29T09:23:36.252Z,51.65
2019-03-29T09:26:06.000Z,53.83
2019-03-29T09:28:35.873Z,52.50
2019-03-29T09:31:10.065Z,53.60
2019-03-29T09:33:39.934Z,50.20
2019-03-29T09:36:09.615Z,53.65
2019-03-29T09:38:39.435Z,53.08
2019-03-29T09:41:09.395Z,50.43
2019-03-29T09:43:39.433Z,51.18
2019-03-29T09:46:09.212Z,49.23
2019-03-29T09:48:39.223Z,43.55
2019-03-29T09:51:09.002Z,46.28
2019-03-29T09:53:41.140Z,44.35
2019-03-29T09:56:10.179Z,52.53
2019-03-29T09:58:45.045Z,47.00
2019-03-29T10:01:19.022Z,43.52
2019-03-29T10:06:16.903Z,40.25
2019-03-29T10:08:46.878Z,42.90
2019-03-29T10:11:21.918Z,40.55
2019-03-29T10:16:18.689Z,36.50
2019-03-29T10:18:48.869Z,35.78
2019-03-29T10:21:18.505Z,39.85
2019-03-29T10:23:48.182Z,34.95
2019-03-29T10:26:18.213Z,37.63
2019-03-29T10:28:48.512Z,38.15
2019-03-29T10:31:31.677Z,34.48
2019-03-29T10:33:49.579Z,29.95
2019-03-29T10:36:19.369Z,33.35
2019-03-29T10:38:51.353Z,34.55
2019-03-29T10:41:22.562Z,33.58
2019-03-29T10:43:52.661Z,29.85
2019-03-29T10:46:22.449Z,21.68
2019-03-29T10:48:52.103Z,26.95
2019-03-29T10:51:22.490Z,24.10
2019-03-29T10:53:52.159Z,20.77
2019-03-29T10:56:33.421Z,21.87
2019-03-29T10:58:53.576Z,23.60
2019-03-29T11:01:24.750Z,18.70
2019-03-29T11:03:54.556Z,20.60
2019-03-29T11:06:24.176Z,18.12
2019-03-29T11:08:53.807Z,21.50
2019-03-29T11:11:23.475Z,17.37
2019-03-29T11:13:56.383Z,15.88
2019-03-29T11:16:24.400Z,21.75
2019-03-29T11:18:54.019Z,16.20
2019-03-29T11:21:23.691Z,13.55
2019-03-29T11:23:53.309Z,13.45
2019-03-29T11:26:23.004Z,13.88
2019-03-29T11:28:52.626Z,17.00
2019-03-29T11:31:25.344Z,13.43
2019-03-29T11:33:54.462Z,14.30
2019-03-29T11:36:24.165Z,11.40
2019-03-29T11:38:53.867Z,17.92
2019-03-29T11:41:23.531Z,13.03
2019-03-29T11:43:53.261Z,13.43
2019-03-29T11:46:22.992Z,15.10
2019-03-29T11:48:52.664Z,13.85
2019-03-29T11:51:22.389Z,11.75
2019-03-29T11:53:52.014Z,12.75
2019-03-29T11:56:21.824Z,13.28
2019-03-29T11:58:51.704Z,12.43
2019-03-29T12:01:21.421Z,12.20
2019-03-29T12:03:51.111Z,16.85
2019-03-29T12:06:20.778Z,25.37
2019-03-29T12:08:50.711Z,16.62
2019-03-29T12:11:20.433Z,17.37
2019-03-29T12:13:50.111Z,18.23
2019-03-29T12:16:19.823Z,16.95
2019-03-29T12:18:49.655Z,20.50
2019-03-29T12:21:19.424Z,20.60
2019-03-29T12:23:49.264Z,22.32
2019-03-29T12:26:18.999Z,24.18
2019-03-29T12:28:48.812Z,21.65
2019-03-29T12:31:18.540Z,19.70
2019-03-29T12:33:48.510Z,21.15
2019-03-29T12:36:18.144Z,27.02
2019-03-29T12:38:48.016Z,19.35
2019-03-29T12:41:17.965Z,15.80
2019-03-29T12:43:55.462Z,15.75
2019-03-29T12:46:18.964Z,18.95
2019-03-29T12:48:50.276Z,15.13
2019-03-29T12:51:20.018Z,16.73
2019-03-29T12:53:49.926Z,18.07
2019-03-29T12:56:21.372Z,14.40
2019-03-29T12:58:53.359Z,14.10
2019-03-29T13:01:23.424Z,14.25
2019-03-29T13:03:53.918Z,17.98
2019-03-29T13:06:23.574Z,15.53
2019-03-29T13:08:54.199Z,13.70
2019-03-29T13:11:23.906Z,14.20
2019-03-29T13:13:53.811Z,14.45
2019-03-29T13:16:23.588Z,12.10
2019-03-29T13:18:53.817Z,14.78
2019-03-29T13:21:23.834Z,11.85
2019-03-29T13:23:55.478Z,14.00
2019-03-29T13:26:25.225Z,15.95
2019-03-29T13:28:55.071Z,15.32
2019-03-29T13:31:25.833Z,16.35
2019-03-29T13:33:55.601Z,12.85
2019-03-29T13:36:25.495Z,14.90
2019-03-29T13:38:55.305Z,15.72
2019-03-29T13:41:25.142Z,13.68
2019-03-29T13:43:54.994Z,21.12
2019-03-29T13:46:24.730Z,14.38
2019-03-29T13:48:54.552Z,13.85
2019-03-29T13:51:25.817Z,15.80
2019-03-29T13:53:55.979Z,18.30
2019-03-29T13:56:25.720Z,16.48
2019-03-29T13:58:55.599Z,22.82
2019-03-29T14:01:25.970Z,16.67
2019-03-29T14:03:56.031Z,21.15
2019-03-29T14:06:25.870Z,15.93
2019-03-29T14:08:57.023Z,15.18
2019-03-29T14:11:26.800Z,16.12
2019-03-29T14:13:56.706Z,16.23
2019-03-29T14:16:26.722Z,16.12
2019-03-29T14:18:56.372Z,16.52
2019-03-29T14:21:26.007Z,18.92
2019-03-29T14:23:55.749Z,19.02
2019-03-29T14:26:25.345Z,22.45
2019-03-29T14:28:55.158Z,16.67
2019-03-29T14:31:28.171Z,17.73
2019-03-29T14:33:58.038Z,20.70
2019-03-29T14:36:27.724Z,20.60
2019-03-29T14:38:57.558Z,22.27
2019-03-29T14:41:28.064Z,21.52
2019-03-29T14:43:57.935Z,20.70
2019-03-29T14:46:27.662Z,18.40
2019-03-29T14:48:58.847Z,16.40
2019-03-29T14:51:28.660Z,19.98
2019-03-29T14:53:58.390Z,19.00
2019-03-29T14:56:28.819Z,17.37
2019-03-29T14:58:58.892Z,20.95
2019-03-29T15:01:28.591Z,21.15
2019-03-29T15:03:58.279Z,17.80
2019-03-29T15:06:28.032Z,18.57
2019-03-29T15:08:58.913Z,14.47
2019-03-29T15:11:28.591Z,18.67
2019-03-29T15:13:58.277Z,18.57
2019-03-29T15:16:28.109Z,15.32
2019-03-29T15:18:57.762Z,17.10
2019-03-29T15:21:27.385Z,15.38
2019-03-29T15:23:56.984Z,12.25
2019-03-29T15:26:26.982Z,14.58
2019-03-29T15:28:56.587Z,16.17
2019-03-29T15:31:26.209Z,16.17
2019-03-29T15:33:55.948Z,15.78
2019-03-29T15:36:26.377Z,14.58
2019-03-29T15:38:56.058Z,16.12
2019-03-29T15:41:25.986Z,16.90
2019-03-29T15:43:55.597Z,16.70
2019-03-29T15:46:25.261Z,15.70
2019-03-29T15:48:56.438Z,13.75
2019-03-29T15:51:26.262Z,13.68
2019-03-29T15:53:55.974Z,11.30
2019-03-29T15:56:25.594Z,11.20
2019-03-29T15:58:55.224Z,14.55
2019-03-29T16:01:24.826Z,15.53
2019-03-29T16:03:54.641Z,13.40
2019-03-29T16:06:24.244Z,13.15
2019-03-29T16:08:53.867Z,17.02
2019-03-29T16:11:23.456Z,17.77
2019-03-29T16:13:53.120Z,13.93
2019-03-29T16:16:22.716Z,13.03
2019-03-29T16:18:52.369Z,13.88
2019-03-29T16:21:21.957Z,13.28
2019-03-29T16:23:51.615Z,14.55
2019-03-29T16:26:21.227Z,12.35
2019-03-29T16:28:50.947Z,16.37
2019-03-29T16:31:20.569Z,16.77
2019-03-29T16:33:50.181Z,15.32
2019-03-29T16:36:19.808Z,17.80
2019-03-29T16:38:49.411Z,18.42
2019-03-29T16:41:19.030Z,18.12
2019-03-29T16:43:48.745Z,17.35
2019-03-29T16:46:18.312Z,18.25
2019-03-29T16:48:47.934Z,18.10
2019-03-29T16:51:17.679Z,18.57
2019-03-29T16:53:47.354Z,14.50
2019-03-29T16:56:17.091Z,19.62
2019-03-29T16:58:46.689Z,16.37
2019-03-29T17:01:16.318Z,15.58
2019-03-29T17:03:45.970Z,16.05
2019-03-29T17:06:17.416Z,16.30
2019-03-29T17:08:47.181Z,15.48
2019-03-29T17:11:16.821Z,15.25
2019-03-29T17:13:46.530Z,16.35
2019-03-29T17:16:29.493Z,15.08
2019-03-29T17:18:47.460Z,14.23
2019-03-29T17:21:17.134Z,16.82
2019-03-29T17:23:46.780Z,14.15
2019-03-29T17:26:16.402Z,14.63
2019-03-29T17:28:46.068Z,15.13
2019-03-29T17:31:16.948Z,12.93
2019-03-29T17:33:46.592Z,12.55
2019-03-29T17:36:16.237Z,13.18
2019-03-29T17:38:45.934Z,14.98
2019-03-29T17:41:15.603Z,17.15
2019-03-29T17:43:45.293Z,14.80
2019-03-29T17:46:16.484Z,15.55
2019-03-29T17:48:46.145Z,20.65
2019-03-29T17:51:15.806Z,16.93
2019-03-29T17:53:46.435Z,13.93
2019-03-29T17:56:16.072Z,14.50
2019-03-29T17:58:45.714Z,20.68
2019-03-29T18:01:15.907Z,14.55
2019-03-29T18:03:45.522Z,14.85
2019-03-29T18:06:15.198Z,13.58
2019-03-29T18:08:44.834Z,16.32
2019-03-29T18:11:14.479Z,14.43
2019-03-29T18:13:44.099Z,16.32
2019-03-29T18:16:13.855Z,15.75
2019-03-29T18:18:43.629Z,22.22
2019-03-29T18:21:13.275Z,15.58
2019-03-29T18:23:45.438Z,19.10
2019-03-29T18:26:16.203Z,13.93
2019-03-29T18:28:46.183Z,15.00
2019-03-29T18:31:15.923Z,20.08
2019-03-29T18:33:45.673Z,19.37
2019-03-29T18:36:15.461Z,16.50
2019-03-29T18:38:47.178Z,16.85
2019-03-29T18:41:17.161Z,15.72
2019-03-29T18:43:47.232Z,13.53
2019-03-29T18:46:17.008Z,12.40
2019-03-29T18:48:46.616Z,17.77
2019-03-29T18:51:16.259Z,15.38
2019-03-29T18:53:46.000Z,15.53
2019-03-29T18:56:15.726Z,17.57
2019-03-29T18:58:45.338Z,17.62
2019-03-29T19:01:15.114Z,17.40
2019-03-29T19:03:44.856Z,15.43
2019-03-29T19:06:14.743Z,15.30
2019-03-29T19:08:44.377Z,14.63
2019-03-29T19:11:14.076Z,16.80
2019-03-29T19:13:43.659Z,16.35
2019-03-29T19:16:13.340Z,15.15
2019-03-29T19:18:43.079Z,17.07
2019-03-29T19:21:12.784Z,22.58
2019-03-29T19:23:42.435Z,20.40
2019-03-29T19:26:12.224Z,21.73
2019-03-29T19:28:41.895Z,25.75
2019-03-29T19:31:11.523Z,22.73
2019-03-29T19:33:41.129Z,25.75
2019-03-29T19:36:10.819Z,25.70
2019-03-29T19:38:40.443Z,26.45
2019-03-29T19:41:10.171Z,26.82
2019-03-29T19:43:39.778Z,29.48
2019-03-29T19:46:09.438Z,28.40
2019-03-29T19:48:39.142Z,31.10
2019-03-29T19:51:08.769Z,24.55
2019-03-29T19:53:38.482Z,24.35
2019-03-29T19:56:08.118Z,21.33
2019-03-29T19:58:37.706Z,22.70
2019-03-29T20:01:07.418Z,27.65
2019-03-29T20:03:37.062Z,24.32
2019-03-29T20:06:06.772Z,21.95
2019-03-29T20:08:36.403Z,23.73
2019-03-29T20:11:06.131Z,19.73
2019-03-29T20:13:35.743Z,24.98
2019-03-29T20:16:05.387Z,25.95
2019-03-29T20:18:35.678Z,23.38
2019-03-29T20:21:05.287Z,24.25
2019-03-29T20:23:34.890Z,21.45
2019-03-29T20:26:04.558Z,26.57
2019-03-29T20:28:34.187Z,25.82
2019-03-29T20:31:04.313Z,25.35
2019-03-29T20:33:33.954Z,25.32
2019-03-29T20:36:03.589Z,25.55
2019-03-29T20:38:33.277Z,28.42
2019-03-29T20:41:02.880Z,27.67
2019-03-29T20:43:32.636Z,28.38
2019-03-29T20:46:02.282Z,31.68
2019-03-29T20:48:31.920Z,30.43
2019-03-29T20:51:01.490Z,31.20
2019-03-29T20:53:31.124Z,31.80
2019-03-29T20:56:00.725Z,32.08
2019-03-29T20:58:30.342Z,31.00
2019-03-29T21:00:59.948Z,27.90
2019-03-29T21:03:29.572Z,26.27
2019-03-29T21:05:59.169Z,28.45
2019-03-29T21:08:28.781Z,22.95
2019-03-29T21:10:58.453Z,27.98
2019-03-29T21:13:28.720Z,28.60
2019-03-29T21:15:58.379Z,30.43
2019-03-29T21:18:27.998Z,25.68
2019-03-29T21:20:57.583Z,24.98
2019-03-29T21:23:27.193Z,32.75
2019-03-29T21:25:56.792Z,28.40
2019-03-29T21:28:26.407Z,27.22
2019-03-29T21:30:56.015Z,25.43
2019-03-29T21:33:25.634Z,26.65
2019-03-29T21:35:55.227Z,31.82
2019-03-29T21:38:24.949Z,29.32
2019-03-29T21:40:54.554Z,25.32
2019-03-29T21:43:24.166Z,29.92
2019-03-29T21:45:53.755Z,27.65
2019-03-29T21:48:29.016Z,27.85
2019-03-29T21:50:54.575Z,29.35
2019-03-29T21:53:24.182Z,28.90
2019-03-29T21:55:53.776Z,32.10
2019-03-29T21:58:23.874Z,27.65
2019-03-29T22:00:53.483Z,33.48
2019-03-29T22:03:23.084Z,28.95
2019-03-29T22:05:52.775Z,30.92
2019-03-29T22:08:22.379Z,29.40
2019-03-29T22:10:51.973Z,30.88
2019-03-29T22:13:21.580Z,30.00
2019-03-29T22:15:51.211Z,197.93
2019-03-29T22:18:20.842Z,30.77
2019-03-29T22:20:50.461Z,27.45
2019-03-29T22:23:20.069Z,30.92
2019-03-29T22:25:49.667Z,28.70
2019-03-29T22:28:19.283Z,27.40
2019-03-29T22:30:48.870Z,28.98
2019-03-29T22:33:19.242Z,34.83
2019-03-29T22:35:48.883Z,27.80
2019-03-29T22:38:18.479Z,28.70
2019-03-29T22:40:48.175Z,30.68
2019-03-29T22:43:18.248Z,28.92
2019-03-29T22:45:47.882Z,28.60
2019-03-29T22:48:17.471Z,28.10
2019-03-29T22:50:47.251Z,26.45
2019-03-29T22:53:16.831Z,28.38
2019-03-29T22:55:46.451Z,30.08
2019-03-29T22:58:16.046Z,28.27
2019-03-29T23:00:48.748Z,25.60
2019-03-29T23:03:18.483Z,28.00
2019-03-29T23:05:48.100Z,27.25
2019-03-29T23:08:17.700Z,26.80
2019-03-29T23:10:47.315Z,23.15
2019-03-29T23:13:16.905Z,25.52
2019-03-29T23:15:46.520Z,22.10
2019-03-29T23:18:16.111Z,23.67
2019-03-29T23:20:45.971Z,23.65
2019-03-29T23:23:15.563Z,20.52
2019-03-29T23:25:45.189Z,21.65
2019-03-29T23:28:14.787Z,22.27
2019-03-29T23:30:44.398Z,23.32
2019-03-29T23:33:14.017Z,18.48
2019-03-29T23:35:43.623Z,18.62
2019-03-29T23:38:13.231Z,19.30
2019-03-29T23:40:42.844Z,20.08
2019-03-29T23:43:12.453Z,18.48
2019-03-29T23:45:42.126Z,20.80
2019-03-29T23:48:11.722Z,18.75
2019-03-29T23:50:41.343Z,21.27
2019-03-29T23:53:10.944Z,19.77
2019-03-29T23:55:40.563Z,16.52
2019-03-29T23:58:10.154Z,20.50
